Ital Oriente — A8LN2 — position and weather

sailwx.info

Track history (hours):
 
Tides and Currents Weather Stations Pressure Air Temp Water Temp Dewpoint Dewpoint Depression Visibility Wind Speed Wind Dir Waves Ship Positions

Ital Oriente

Last reported at 2015-Jan-30 19:30 UTC. Time now 2015-Jan-31 17:42 UTC.
Position N 40°53' E 028°33'.

Length 222 m; draft 7.6 m.

Type: Cargo ship. MMSI: 636091278.

Date/timePositionNaut miles runAvg speedWind from/ knotsBaromVisibWave heightAir tempDewpointWater temp
2015-Jan-30 19:30N 40°53' E 028°33'7 2.4
2015-Jan-30 16:28N 40°58' E 028°40'0 0.0
2015-Jan-30 15:10N 40°58' E 028°40'0 0.0
2015-Jan-30 14:04N 40°58' E 028°40'0 0.3
2015-Jan-30 13:11N 40°58' E 028°41'3 4.8
2015-Jan-30 12:28N 40°56' E 028°37'9115.4
2015-Jan-30 06:32N 40°25' E 026°44'5212.7
2015-Jan-30 02:28N 39°52' E 025°52'16515.1
2015-Jan-29 15:32N 37°37' E 023°51'1414.3
2015-Jan-29 14:33N 37°46' E 023°38'1111.3
2015-Jan-29 13:33N 37°57' E 023°35'0 0.0
2015-Jan-29 12:33N 37°57' E 023°35'0 0.0
2015-Jan-29 11:33N 37°57' E 023°35'0 0.0
2015-Jan-29 10:33N 37°57' E 023°35'0 0.0
2015-Jan-29 09:33N 37°57' E 023°35'0 0.0
2015-Jan-29 08:30N 37°57' E 023°35'0 0.0
2015-Jan-29 07:33N 37°57' E 023°35'0 0.0
2015-Jan-29 06:33N 37°57' E 023°35'0 0.0
2015-Jan-29 05:33N 37°57' E 023°35'0 0.0
2015-Jan-29 04:33N 37°57' E 023°35'0 0.0
2015-Jan-29 03:33N 37°57' E 023°35'0 0.0
2015-Jan-29 02:33N 37°57' E 023°35'0 0.0
2015-Jan-29 01:33N 37°57' E 023°35'0 0.0
2015-Jan-29 00:33N 37°57' E 023°35'0 0.0
2015-Jan-28 23:33N 37°57' E 023°35'0 0.0
2015-Jan-28 22:33N 37°57' E 023°35'0 0.0
2015-Jan-28 21:33N 37°57' E 023°35'0 0.0
2015-Jan-28 20:33N 37°57' E 023°35'0 0.0
2015-Jan-28 19:33N 37°57' E 023°35'0 0.0
2015-Jan-28 18:33N 37°57' E 023°35'0 0.0
2015-Jan-28 17:33N 37°57' E 023°35'0 0.0
2015-Jan-28 16:33N 37°57' E 023°35'0 0.0
2015-Jan-28 15:30N 37°57' E 023°35'1 0.9
2015-Jan-28 14:33N 37°57' E 023°35'2 2.0
2015-Jan-28 13:33N 37°55' E 023°35'0 0.4
2015-Jan-28 12:33N 37°54' E 023°34'3 3.4
2015-Jan-28 11:33N 37°52' E 023°31'1 1.2
2015-Jan-28 10:33N 37°51' E 023°30'0 0.0
2015-Jan-28 09:33N 37°51' E 023°30'0 0.0
2015-Jan-28 08:33N 37°51' E 023°30'0 0.0
2015-Jan-28 07:33N 37°51' E 023°30'0 0.0
2015-Jan-28 06:33N 37°51' E 023°30'0 0.0
2015-Jan-28 05:33N 37°51' E 023°30'0 0.0
2015-Jan-28 04:33N 37°51' E 023°30'2 1.7
2015-Jan-28 03:33N 37°51' E 023°32'6 6.1
2015-Jan-28 02:33N 37°51' E 023°39'1211.6
2015-Jan-28 01:33N 37°40' E 023°46'1613.4
2015-Jan-28 00:19N 37°35' E 024°06'123 2.8
2015-Jan-26 04:32N 39°39' E 024°01'11516.3
2015-Jan-25 21:29N 38°49' E 026°15'68 2.4
2015-Jan-24 17:28N 39°55' E 025°53'5512.8
2015-Jan-24 13:10N 40°28' E 026°50'  
2015-Jan-22 07:04N 39°43' E 025°45'15514.6
2015-Jan-21 20:27N 37°36' E 023°51'1314.2
2015-Jan-21 19:33N 37°45' E 023°39'1312.7
2015-Jan-21 18:34N 37°57' E 023°35'0 0.2
2015-Jan-21 17:32N 37°57' E 023°35'0 0.0
2015-Jan-21 16:32N 37°57' E 023°35'0 0.0
2015-Jan-21 15:32N 37°57' E 023°35'0 0.0
2015-Jan-21 14:32N 37°57' E 023°35'0 0.0
2015-Jan-21 13:32N 37°57' E 023°35'0 0.0
2015-Jan-21 12:32N 37°57' E 023°35'0 0.0
2015-Jan-21 11:32N 37°57' E 023°35'0 0.0
2015-Jan-21 10:32N 37°57' E 023°35'0 0.0
2015-Jan-21 09:32N 37°57' E 023°35'0 0.0
2015-Jan-21 08:32N 37°57' E 023°35'0 0.0
2015-Jan-21 07:32N 37°57' E 023°35'0 0.0
2015-Jan-21 06:32N 37°57' E 023°35'0 0.0
2015-Jan-21 05:32N 37°57' E 023°35'0 0.0
2015-Jan-21 04:32N 37°57' E 023°35'0 0.0
2015-Jan-21 03:32N 37°57' E 023°35'0 0.0
2015-Jan-21 02:32N 37°57' E 023°35'0 0.0
2015-Jan-21 01:32N 37°57' E 023°35'0 0.0
2015-Jan-21 00:32N 37°57' E 023°35'0 0.0
2015-Jan-20 23:32N 37°57' E 023°35'0 0.0
2015-Jan-20 22:32N 37°57' E 023°35'0 0.1
2015-Jan-20 21:33N 37°57' E 023°35'3 2.9
2015-Jan-20 20:33N 37°54' E 023°36'1 0.5
2015-Jan-20 19:33N 37°55' E 023°35'  
Track history (hours):
 
Tides and Currents Weather Stations Pressure Air Temp Water Temp Dewpoint Dewpoint Depression Visibility Wind Speed Wind Dir Waves Ship Positions

Ital Oriente

Last reported at 2015-Jan-30 19:30 UTC. Time now 2015-Jan-31 17:42 UTC.
Position N 40°53' E 028°33'.

Length 222 m; draft 7.6 m.

Type: Cargo ship. MMSI: 636091278.

Date/timePositionNaut miles runAvg speedWind from/ knotsBaromVisibWave heightAir tempDewpointWater temp
2015-Jan-30 19:30N 40°53' E 028°33'7 2.4
2015-Jan-30 16:28N 40°58' E 028°40'0 0.0
2015-Jan-30 15:10N 40°58' E 028°40'0 0.0
2015-Jan-30 14:04N 40°58' E 028°40'0 0.3
2015-Jan-30 13:11N 40°58' E 028°41'3 4.8
2015-Jan-30 12:28N 40°56' E 028°37'9115.4
2015-Jan-30 06:32N 40°25' E 026°44'5212.7
2015-Jan-30 02:28N 39°52' E 025°52'16515.1
2015-Jan-29 15:32N 37°37' E 023°51'1414.3
2015-Jan-29 14:33N 37°46' E 023°38'1111.3
2015-Jan-29 13:33N 37°57' E 023°35'0 0.0
2015-Jan-29 12:33N 37°57' E 023°35'0 0.0
2015-Jan-29 11:33N 37°57' E 023°35'0 0.0
2015-Jan-29 10:33N 37°57' E 023°35'0 0.0
2015-Jan-29 09:33N 37°57' E 023°35'0 0.0
2015-Jan-29 08:30N 37°57' E 023°35'0 0.0
2015-Jan-29 07:33N 37°57' E 023°35'0 0.0
2015-Jan-29 06:33N 37°57' E 023°35'0 0.0
2015-Jan-29 05:33N 37°57' E 023°35'0 0.0
2015-Jan-29 04:33N 37°57' E 023°35'0 0.0
2015-Jan-29 03:33N 37°57' E 023°35'0 0.0
2015-Jan-29 02:33N 37°57' E 023°35'0 0.0
2015-Jan-29 01:33N 37°57' E 023°35'0 0.0
2015-Jan-29 00:33N 37°57' E 023°35'0 0.0
2015-Jan-28 23:33N 37°57' E 023°35'0 0.0
2015-Jan-28 22:33N 37°57' E 023°35'0 0.0
2015-Jan-28 21:33N 37°57' E 023°35'0 0.0
2015-Jan-28 20:33N 37°57' E 023°35'0 0.0
2015-Jan-28 19:33N 37°57' E 023°35'0 0.0
2015-Jan-28 18:33N 37°57' E 023°35'0 0.0
2015-Jan-28 17:33N 37°57' E 023°35'0 0.0
2015-Jan-28 16:33N 37°57' E 023°35'0 0.0
2015-Jan-28 15:30N 37°57' E 023°35'1 0.9
2015-Jan-28 14:33N 37°57' E 023°35'2 2.0
2015-Jan-28 13:33N 37°55' E 023°35'0 0.4
2015-Jan-28 12:33N 37°54' E 023°34'3 3.4
2015-Jan-28 11:33N 37°52' E 023°31'1 1.2
2015-Jan-28 10:33N 37°51' E 023°30'0 0.0
2015-Jan-28 09:33N 37°51' E 023°30'0 0.0
2015-Jan-28 08:33N 37°51' E 023°30'0 0.0
2015-Jan-28 07:33N 37°51' E 023°30'0 0.0
2015-Jan-28 06:33N 37°51' E 023°30'0 0.0
2015-Jan-28 05:33N 37°51' E 023°30'0 0.0
2015-Jan-28 04:33N 37°51' E 023°30'2 1.7
2015-Jan-28 03:33N 37°51' E 023°32'6 6.1
2015-Jan-28 02:33N 37°51' E 023°39'1211.6
2015-Jan-28 01:33N 37°40' E 023°46'1613.4
2015-Jan-28 00:19N 37°35' E 024°06'123 2.8
2015-Jan-26 04:32N 39°39' E 024°01'11516.3
2015-Jan-25 21:29N 38°49' E 026°15'68 2.4
2015-Jan-24 17:28N 39°55' E 025°53'5512.8
2015-Jan-24 13:10N 40°28' E 026°50'  
2015-Jan-22 07:04N 39°43' E 025°45'15514.6
2015-Jan-21 20:27N 37°36' E 023°51'1314.2
2015-Jan-21 19:33N 37°45' E 023°39'1312.7
2015-Jan-21 18:34N 37°57' E 023°35'0 0.2
2015-Jan-21 17:32N 37°57' E 023°35'0 0.0
2015-Jan-21 16:32N 37°57' E 023°35'0 0.0
2015-Jan-21 15:32N 37°57' E 023°35'0 0.0
2015-Jan-21 14:32N 37°57' E 023°35'0 0.0
2015-Jan-21 13:32N 37°57' E 023°35'0 0.0
2015-Jan-21 12:32N 37°57' E 023°35'0 0.0
2015-Jan-21 11:32N 37°57' E 023°35'0 0.0
2015-Jan-21 10:32N 37°57' E 023°35'0 0.0
2015-Jan-21 09:32N 37°57' E 023°35'0 0.0
2015-Jan-21 08:32N 37°57' E 023°35'0 0.0
2015-Jan-21 07:32N 37°57' E 023°35'0 0.0
2015-Jan-21 06:32N 37°57' E 023°35'0 0.0
2015-Jan-21 05:32N 37°57' E 023°35'0 0.0
2015-Jan-21 04:32N 37°57' E 023°35'0 0.0
2015-Jan-21 03:32N 37°57' E 023°35'0 0.0
2015-Jan-21 02:32N 37°57' E 023°35'0 0.0
2015-Jan-21 01:32N 37°57' E 023°35'0 0.0
2015-Jan-21 00:32N 37°57' E 023°35'0 0.0
2015-Jan-20 23:32N 37°57' E 023°35'0 0.0
2015-Jan-20 22:32N 37°57' E 023°35'0 0.1
2015-Jan-20 21:33N 37°57' E 023°35'3 2.9
2015-Jan-20 20:33N 37°54' E 023°36'1 0.5
2015-Jan-20 19:33N 37°55' E 023°35'  

Dump ship's entire track history